sensor_id;sensor_type;location;lat;lon;timestamp;temperature;humidity
56268;DHT22;42175;46.930;9.532;2023-06-04T00:00:36;25.00;49.50
56268;DHT22;42175;46.930;9.532;2023-06-04T00:03:02;25.00;50.10
56268;DHT22;42175;46.930;9.532;2023-06-04T00:05:27;25.00;49.50
56268;DHT22;42175;46.930;9.532;2023-06-04T00:07:53;25.00;49.50
56268;DHT22;42175;46.930;9.532;2023-06-04T00:10:19;25.00;49.50
56268;DHT22;42175;46.930;9.532;2023-06-04T00:12:45;25.00;49.50
56268;DHT22;42175;46.930;9.532;2023-06-04T00:15:12;25.00;49.50
56268;DHT22;42175;46.930;9.532;2023-06-04T00:17:38;25.00;49.50
56268;DHT22;42175;46.930;9.532;2023-06-04T00:20:04;24.90;49.50
56268;DHT22;42175;46.930;9.532;2023-06-04T00:22:30;25.00;49.50
56268;DHT22;42175;46.930;9.532;2023-06-04T00:24:55;25.00;49.60
56268;DHT22;42175;46.930;9.532;2023-06-04T00:27:21;25.00;49.50
56268;DHT22;42175;46.930;9.532;2023-06-04T00:29:46;25.00;49.60
56268;DHT22;42175;46.930;9.532;2023-06-04T00:32:12;25.00;49.60
56268;DHT22;42175;46.930;9.532;2023-06-04T00:34:38;25.00;49.70
56268;DHT22;42175;46.930;9.532;2023-06-04T00:37:04;25.00;49.60
56268;DHT22;42175;46.930;9.532;2023-06-04T00:39:29;25.00;49.70
56268;DHT22;42175;46.930;9.532;2023-06-04T00:41:55;25.00;49.60
56268;DHT22;42175;46.930;9.532;2023-06-04T00:44:21;25.00;49.70
56268;DHT22;42175;46.930;9.532;2023-06-04T00:46:52;25.00;49.70
56268;DHT22;42175;46.930;9.532;2023-06-04T00:49:20;25.00;49.70
56268;DHT22;42175;46.930;9.532;2023-06-04T00:51:45;25.00;49.70
56268;DHT22;42175;46.930;9.532;2023-06-04T00:54:13;25.00;50.30
56268;DHT22;42175;46.930;9.532;2023-06-04T00:56:39;25.00;49.70
56268;DHT22;42175;46.930;9.532;2023-06-04T00:59:07;25.00;49.70
56268;DHT22;42175;46.930;9.532;2023-06-04T01:01:56;25.00;49.70
56268;DHT22;42175;46.930;9.532;2023-06-04T01:07:02;25.00;49.60
56268;DHT22;42175;46.930;9.532;2023-06-04T01:09:29;25.00;49.70
56268;DHT22;42175;46.930;9.532;2023-06-04T01:11:56;25.00;49.80
56268;DHT22;42175;46.930;9.532;2023-06-04T01:14:24;25.00;49.70
56268;DHT22;42175;46.930;9.532;2023-06-04T01:17:07;25.00;49.70
56268;DHT22;42175;46.930;9.532;2023-06-04T01:22:42;25.00;49.80
56268;DHT22;42175;46.930;9.532;2023-06-04T01:25:15;25.00;49.80
56268;DHT22;42175;46.930;9.532;2023-06-04T01:27:50;25.00;49.80
56268;DHT22;42175;46.930;9.532;2023-06-04T01:30:21;25.00;49.90
56268;DHT22;42175;46.930;9.532;2023-06-04T01:32:48;25.00;50.30
56268;DHT22;42175;46.930;9.532;2023-06-04T01:35:14;25.00;49.80
56268;DHT22;42175;46.930;9.532;2023-06-04T01:37:40;25.00;49.80
56268;DHT22;42175;46.930;9.532;2023-06-04T01:40:06;25.00;49.80
56268;DHT22;42175;46.930;9.532;2023-06-04T01:42:34;25.00;49.70
56268;DHT22;42175;46.930;9.532;2023-06-04T01:45:00;25.00;49.80
56268;DHT22;42175;46.930;9.532;2023-06-04T01:47:26;25.00;49.80
56268;DHT22;42175;46.930;9.532;2023-06-04T01:49:51;25.00;49.70
56268;DHT22;42175;46.930;9.532;2023-06-04T01:52:17;25.00;49.80
56268;DHT22;42175;46.930;9.532;2023-06-04T01:54:43;25.00;49.70
56268;DHT22;42175;46.930;9.532;2023-06-04T01:57:10;25.00;49.80
56268;DHT22;42175;46.930;9.532;2023-06-04T01:59:36;25.00;49.70
56268;DHT22;42175;46.930;9.532;2023-06-04T02:02:02;25.00;49.70
56268;DHT22;42175;46.930;9.532;2023-06-04T02:04:28;25.00;49.70
56268;DHT22;42175;46.930;9.532;2023-06-04T02:06:54;25.00;49.70
56268;DHT22;42175;46.930;9.532;2023-06-04T02:09:21;25.00;49.70
56268;DHT22;42175;46.930;9.532;2023-06-04T02:11:46;25.00;49.70
56268;DHT22;42175;46.930;9.532;2023-06-04T02:14:12;25.00;49.80
56268;DHT22;42175;46.930;9.532;2023-06-04T02:16:38;24.90;49.70
56268;DHT22;42175;46.930;9.532;2023-06-04T02:19:04;25.00;49.80
56268;DHT22;42175;46.930;9.532;2023-06-04T02:21:30;25.00;49.80
56268;DHT22;42175;46.930;9.532;2023-06-04T02:23:56;25.00;49.80
56268;DHT22;42175;46.930;9.532;2023-06-04T02:26:21;25.00;49.80
56268;DHT22;42175;46.930;9.532;2023-06-04T02:28:48;25.00;49.80
56268;DHT22;42175;46.930;9.532;2023-06-04T02:31:14;25.00;49.90
56268;DHT22;42175;46.930;9.532;2023-06-04T02:33:40;25.00;49.80
56268;DHT22;42175;46.930;9.532;2023-06-04T02:36:06;25.00;49.80
56268;DHT22;42175;46.930;9.532;2023-06-04T02:38:31;25.00;49.80
56268;DHT22;42175;46.930;9.532;2023-06-04T02:40:57;25.00;49.90
56268;DHT22;42175;46.930;9.532;2023-06-04T02:43:23;25.00;49.80
56268;DHT22;42175;46.930;9.532;2023-06-04T02:45:48;25.00;49.80
56268;DHT22;42175;46.930;9.532;2023-06-04T02:48:14;25.00;49.80
56268;DHT22;42175;46.930;9.532;2023-06-04T02:50:40;25.00;49.90
56268;DHT22;42175;46.930;9.532;2023-06-04T02:53:08;25.00;49.80
56268;DHT22;42175;46.930;9.532;2023-06-04T02:55:33;25.00;49.90
56268;DHT22;42175;46.930;9.532;2023-06-04T02:57:59;25.00;49.80
56268;DHT22;42175;46.930;9.532;2023-06-04T03:00:26;24.90;49.80
56268;DHT22;42175;46.930;9.532;2023-06-04T03:02:52;25.00;49.80
56268;DHT22;42175;46.930;9.532;2023-06-04T03:05:17;25.00;49.80
56268;DHT22;42175;46.930;9.532;2023-06-04T03:07:44;25.00;49.90
56268;DHT22;42175;46.930;9.532;2023-06-04T03:10:12;25.00;49.80
56268;DHT22;42175;46.930;9.532;2023-06-04T03:12:38;25.00;49.80
56268;DHT22;42175;46.930;9.532;2023-06-04T03:15:05;25.00;49.80
56268;DHT22;42175;46.930;9.532;2023-06-04T03:17:31;25.00;49.80
56268;DHT22;42175;46.930;9.532;2023-06-04T03:19:57;25.00;49.90
56268;DHT22;42175;46.930;9.532;2023-06-04T03:22:23;25.00;49.90
56268;DHT22;42175;46.930;9.532;2023-06-04T03:24:49;25.00;50.00
56268;DHT22;42175;46.930;9.532;2023-06-04T03:27:14;24.90;50.00
56268;DHT22;42175;46.930;9.532;2023-06-04T03:29:40;25.00;50.10
56268;DHT22;42175;46.930;9.532;2023-06-04T03:32:06;25.00;50.10
56268;DHT22;42175;46.930;9.532;2023-06-04T03:34:32;25.00;50.10
56268;DHT22;42175;46.930;9.532;2023-06-04T03:36:58;25.00;50.10
56268;DHT22;42175;46.930;9.532;2023-06-04T03:39:25;25.00;50.20
56268;DHT22;42175;46.930;9.532;2023-06-04T03:41:51;25.00;50.20
56268;DHT22;42175;46.930;9.532;2023-06-04T03:44:17;25.00;50.10
56268;DHT22;42175;46.930;9.532;2023-06-04T03:46:44;25.00;50.10
56268;DHT22;42175;46.930;9.532;2023-06-04T03:49:10;24.90;50.10
56268;DHT22;42175;46.930;9.532;2023-06-04T03:51:37;25.00;50.10
56268;DHT22;42175;46.930;9.532;2023-06-04T03:54:03;25.00;50.10
56268;DHT22;42175;46.930;9.532;2023-06-04T03:56:29;25.00;50.10
56268;DHT22;42175;46.930;9.532;2023-06-04T03:58:55;25.00;50.10
56268;DHT22;42175;46.930;9.532;2023-06-04T04:01:21;25.00;50.10
56268;DHT22;42175;46.930;9.532;2023-06-04T04:03:49;24.90;50.00
56268;DHT22;42175;46.930;9.532;2023-06-04T04:06:16;25.00;50.10
56268;DHT22;42175;46.930;9.532;2023-06-04T04:08:42;25.00;50.10
56268;DHT22;42175;46.930;9.532;2023-06-04T04:11:13;25.00;50.10
56268;DHT22;42175;46.930;9.532;2023-06-04T04:13:39;24.90;50.10
56268;DHT22;42175;46.930;9.532;2023-06-04T04:16:05;24.90;50.00
56268;DHT22;42175;46.930;9.532;2023-06-04T04:18:35;25.00;50.10
56268;DHT22;42175;46.930;9.532;2023-06-04T04:21:02;25.00;50.00
56268;DHT22;42175;46.930;9.532;2023-06-04T04:23:29;25.00;50.10
56268;DHT22;42175;46.930;9.532;2023-06-04T04:25:55;25.00;50.10
56268;DHT22;42175;46.930;9.532;2023-06-04T04:28:22;25.00;50.10
56268;DHT22;42175;46.930;9.532;2023-06-04T04:30:48;24.90;50.00
56268;DHT22;42175;46.930;9.532;2023-06-04T04:33:14;25.00;50.10
56268;DHT22;42175;46.930;9.532;2023-06-04T04:35:44;24.90;50.10
56268;DHT22;42175;46.930;9.532;2023-06-04T04:38:10;25.00;50.10
56268;DHT22;42175;46.930;9.532;2023-06-04T04:40:36;25.00;50.10
56268;DHT22;42175;46.930;9.532;2023-06-04T04:43:02;25.00;50.20
56268;DHT22;42175;46.930;9.532;2023-06-04T04:45:29;25.00;50.10
56268;DHT22;42175;46.930;9.532;2023-06-04T04:47:54;25.00;50.10
56268;DHT22;42175;46.930;9.532;2023-06-04T04:50:20;24.90;50.10
56268;DHT22;42175;46.930;9.532;2023-06-04T04:52:46;24.90;50.10
56268;DHT22;42175;46.930;9.532;2023-06-04T04:55:12;25.00;50.10
56268;DHT22;42175;46.930;9.532;2023-06-04T04:57:39;25.00;50.10
56268;DHT22;42175;46.930;9.532;2023-06-04T05:00:05;25.00;50.20
56268;DHT22;42175;46.930;9.532;2023-06-04T05:02:34;24.90;50.10
56268;DHT22;42175;46.930;9.532;2023-06-04T05:05:01;25.00;50.20
56268;DHT22;42175;46.930;9.532;2023-06-04T05:07:26;24.90;50.10
56268;DHT22;42175;46.930;9.532;2023-06-04T05:09:52;25.00;50.80
56268;DHT22;42175;46.930;9.532;2023-06-04T05:12:18;25.00;50.20
56268;DHT22;42175;46.930;9.532;2023-06-04T05:14:44;25.00;50.20
56268;DHT22;42175;46.930;9.532;2023-06-04T05:17:10;24.90;50.20
56268;DHT22;42175;46.930;9.532;2023-06-04T05:19:37;24.90;50.20
56268;DHT22;42175;46.930;9.532;2023-06-04T05:22:04;25.00;50.20
56268;DHT22;42175;46.930;9.532;2023-06-04T05:24:31;24.90;50.20
56268;DHT22;42175;46.930;9.532;2023-06-04T05:26:58;24.90;50.20
56268;DHT22;42175;46.930;9.532;2023-06-04T05:29:24;24.90;50.20
56268;DHT22;42175;46.930;9.532;2023-06-04T05:31:50;25.00;50.20
56268;DHT22;42175;46.930;9.532;2023-06-04T05:34:16;24.90;50.10
56268;DHT22;42175;46.930;9.532;2023-06-04T05:36:44;24.90;50.20
56268;DHT22;42175;46.930;9.532;2023-06-04T05:39:10;24.90;50.20
56268;DHT22;42175;46.930;9.532;2023-06-04T05:41:36;25.00;50.20
56268;DHT22;42175;46.930;9.532;2023-06-04T05:44:02;25.00;50.20
56268;DHT22;42175;46.930;9.532;2023-06-04T05:46:28;25.00;50.20
56268;DHT22;42175;46.930;9.532;2023-06-04T05:48:54;25.00;50.30
56268;DHT22;42175;46.930;9.532;2023-06-04T05:51:20;25.00;50.30
56268;DHT22;42175;46.930;9.532;2023-06-04T05:53:46;25.00;50.40
56268;DHT22;42175;46.930;9.532;2023-06-04T05:56:13;24.90;50.20
56268;DHT22;42175;46.930;9.532;2023-06-04T05:58:38;25.00;50.30
56268;DHT22;42175;46.930;9.532;2023-06-04T06:01:04;24.90;50.20
56268;DHT22;42175;46.930;9.532;2023-06-04T06:03:30;25.00;50.20
56268;DHT22;42175;46.930;9.532;2023-06-04T06:05:57;24.90;50.20
56268;DHT22;42175;46.930;9.532;2023-06-04T06:08:25;24.90;50.20
56268;DHT22;42175;46.930;9.532;2023-06-04T06:10:51;25.00;50.10
56268;DHT22;42175;46.930;9.532;2023-06-04T06:13:16;24.90;50.10
56268;DHT22;42175;46.930;9.532;2023-06-04T06:15:42;25.00;50.10
56268;DHT22;42175;46.930;9.532;2023-06-04T06:18:09;24.90;50.00
56268;DHT22;42175;46.930;9.532;2023-06-04T06:20:34;24.90;50.00
56268;DHT22;42175;46.930;9.532;2023-06-04T06:23:07;24.90;50.00
56268;DHT22;42175;46.930;9.532;2023-06-04T06:25:33;25.00;50.10
56268;DHT22;42175;46.930;9.532;2023-06-04T06:27:58;25.00;50.00
56268;DHT22;42175;46.930;9.532;2023-06-04T06:30:24;25.00;49.90
56268;DHT22;42175;46.930;9.532;2023-06-04T06:32:50;25.00;50.00
56268;DHT22;42175;46.930;9.532;2023-06-04T06:35:17;24.90;49.90
56268;DHT22;42175;46.930;9.532;2023-06-04T06:37:43;25.00;49.90
56268;DHT22;42175;46.930;9.532;2023-06-04T06:40:10;24.90;49.80
56268;DHT22;42175;46.930;9.532;2023-06-04T06:42:36;25.00;49.90
56268;DHT22;42175;46.930;9.532;2023-06-04T06:45:02;25.00;49.80
56268;DHT22;42175;46.930;9.532;2023-06-04T06:47:27;25.00;50.00
56268;DHT22;42175;46.930;9.532;2023-06-04T06:49:53;24.90;49.80
56268;DHT22;42175;46.930;9.532;2023-06-04T06:52:20;25.00;50.10
56268;DHT22;42175;46.930;9.532;2023-06-04T06:54:46;24.90;49.80
56268;DHT22;42175;46.930;9.532;2023-06-04T06:57:12;25.00;49.30
56268;DHT22;42175;46.930;9.532;2023-06-04T06:59:38;24.90;47.70
56268;DHT22;42175;46.930;9.532;2023-06-04T07:02:05;24.70;47.50
56268;DHT22;42175;46.930;9.532;2023-06-04T07:04:31;24.60;47.40
56268;DHT22;42175;46.930;9.532;2023-06-04T07:06:57;24.40;47.60
56268;DHT22;42175;46.930;9.532;2023-06-04T07:09:23;24.30;47.80
56268;DHT22;42175;46.930;9.532;2023-06-04T07:11:48;24.20;47.90
56268;DHT22;42175;46.930;9.532;2023-06-04T07:14:14;24.10;48.30
56268;DHT22;42175;46.930;9.532;2023-06-04T07:16:40;24.10;48.10
56268;DHT22;42175;46.930;9.532;2023-06-04T07:19:06;24.00;48.00
56268;DHT22;42175;46.930;9.532;2023-06-04T07:21:32;24.00;48.10
56268;DHT22;42175;46.930;9.532;2023-06-04T07:23:57;23.90;48.50
56268;DHT22;42175;46.930;9.532;2023-06-04T07:26:23;23.80;48.40
56268;DHT22;42175;46.930;9.532;2023-06-04T07:28:51;23.80;48.40
56268;DHT22;42175;46.930;9.532;2023-06-04T07:31:17;23.60;48.60
56268;DHT22;42175;46.930;9.532;2023-06-04T07:33:43;23.70;49.00
56268;DHT22;42175;46.930;9.532;2023-06-04T07:36:12;23.70;48.80
56268;DHT22;42175;46.930;9.532;2023-06-04T07:38:39;23.70;48.50
56268;DHT22;42175;46.930;9.532;2023-06-04T07:41:05;23.60;48.30
56268;DHT22;42175;46.930;9.532;2023-06-04T07:43:33;23.50;48.90
56268;DHT22;42175;46.930;9.532;2023-06-04T07:46:01;23.50;48.90
56268;DHT22;42175;46.930;9.532;2023-06-04T07:48:27;23.50;49.10
56268;DHT22;42175;46.930;9.532;2023-06-04T07:50:59;23.30;49.60
56268;DHT22;42175;46.930;9.532;2023-06-04T07:53:26;23.30;49.60
56268;DHT22;42175;46.930;9.532;2023-06-04T07:55:52;23.40;49.70
56268;DHT22;42175;46.930;9.532;2023-06-04T07:58:18;23.50;49.40
56268;DHT22;42175;46.930;9.532;2023-06-04T08:00:44;23.60;48.90
56268;DHT22;42175;46.930;9.532;2023-06-04T08:03:10;23.50;49.10
56268;DHT22;42175;46.930;9.532;2023-06-04T08:05:36;23.50;49.30
56268;DHT22;42175;46.930;9.532;2023-06-04T08:08:01;23.40;49.30
56268;DHT22;42175;46.930;9.532;2023-06-04T08:10:29;23.40;49.30
56268;DHT22;42175;46.930;9.532;2023-06-04T08:12:55;23.40;49.70
56268;DHT22;42175;46.930;9.532;2023-06-04T08:15:21;23.40;49.80
56268;DHT22;42175;46.930;9.532;2023-06-04T08:17:47;23.30;49.80
56268;DHT22;42175;46.930;9.532;2023-06-04T08:20:13;23.10;50.20
56268;DHT22;42175;46.930;9.532;2023-06-04T08:22:38;23.20;50.40
56268;DHT22;42175;46.930;9.532;2023-06-04T08:25:06;23.20;50.10
56268;DHT22;42175;46.930;9.532;2023-06-04T08:27:32;23.20;50.00
56268;DHT22;42175;46.930;9.532;2023-06-04T08:29:58;23.20;50.20
56268;DHT22;42175;46.930;9.532;2023-06-04T08:32:24;23.20;49.90
56268;DHT22;42175;46.930;9.532;2023-06-04T08:34:50;23.20;50.10
56268;DHT22;42175;46.930;9.532;2023-06-04T08:37:17;23.20;49.90
56268;DHT22;42175;46.930;9.532;2023-06-04T08:39:43;23.30;50.10
56268;DHT22;42175;46.930;9.532;2023-06-04T08:42:16;23.30;50.00
56268;DHT22;42175;46.930;9.532;2023-06-04T08:44:49;23.40;50.40
56268;DHT22;42175;46.930;9.532;2023-06-04T08:47:17;23.60;50.40
56268;DHT22;42175;46.930;9.532;2023-06-04T08:49:49;23.80;50.10
56268;DHT22;42175;46.930;9.532;2023-06-04T08:52:15;23.90;49.80
56268;DHT22;42175;46.930;9.532;2023-06-04T08:54:41;23.90;49.90
56268;DHT22;42175;46.930;9.532;2023-06-04T08:57:07;23.80;49.50
56268;DHT22;42175;46.930;9.532;2023-06-04T08:59:33;23.70;49.60
56268;DHT22;42175;46.930;9.532;2023-06-04T09:01:59;23.60;50.00
56268;DHT22;42175;46.930;9.532;2023-06-04T09:04:25;23.60;50.40
56268;DHT22;42175;46.930;9.532;2023-06-04T09:06:52;23.50;49.90
56268;DHT22;42175;46.930;9.532;2023-06-04T09:09:19;23.50;50.20
56268;DHT22;42175;46.930;9.532;2023-06-04T09:11:54;23.50;50.10
56268;DHT22;42175;46.930;9.532;2023-06-04T09:14:20;23.40;50.20
56268;DHT22;42175;46.930;9.532;2023-06-04T09:19:14;23.50;50.60
56268;DHT22;42175;46.930;9.532;2023-06-04T09:21:53;23.40;50.20
56268;DHT22;42175;46.930;9.532;2023-06-04T09:24:22;23.40;50.30
56268;DHT22;42175;46.930;9.532;2023-06-04T09:26:49;23.40;50.40
56268;DHT22;42175;46.930;9.532;2023-06-04T09:29:15;23.40;50.30
56268;DHT22;42175;46.930;9.532;2023-06-04T09:31:44;23.30;50.20
56268;DHT22;42175;46.930;9.532;2023-06-04T09:34:09;23.30;50.50
56268;DHT22;42175;46.930;9.532;2023-06-04T09:36:36;23.30;50.20
56268;DHT22;42175;46.930;9.532;2023-06-04T09:39:22;23.30;50.20
56268;DHT22;42175;46.930;9.532;2023-06-04T09:41:59;23.30;50.30
56268;DHT22;42175;46.930;9.532;2023-06-04T09:44:26;23.30;50.10
56268;DHT22;42175;46.930;9.532;2023-06-04T09:46:57;23.30;50.00
56268;DHT22;42175;46.930;9.532;2023-06-04T09:49:24;23.30;49.70
56268;DHT22;42175;46.930;9.532;2023-06-04T09:51:50;23.20;49.60
56268;DHT22;42175;46.930;9.532;2023-06-04T09:54:16;23.30;49.70
56268;DHT22;42175;46.930;9.532;2023-06-04T09:56:42;23.30;49.60
56268;DHT22;42175;46.930;9.532;2023-06-04T09:59:12;23.20;49.60
56268;DHT22;42175;46.930;9.532;2023-06-04T10:01:39;23.20;49.90
56268;DHT22;42175;46.930;9.532;2023-06-04T10:04:09;23.20;49.90
56268;DHT22;42175;46.930;9.532;2023-06-04T10:06:39;23.20;50.70
56268;DHT22;42175;46.930;9.532;2023-06-04T10:09:06;23.20;50.80
56268;DHT22;42175;46.930;9.532;2023-06-04T10:11:39;23.30;51.30
56268;DHT22;42175;46.930;9.532;2023-06-04T10:14:13;23.10;52.00
56268;DHT22;42175;46.930;9.532;2023-06-04T10:16:42;23.20;52.20
56268;DHT22;42175;46.930;9.532;2023-06-04T10:19:08;23.30;52.70
56268;DHT22;42175;46.930;9.532;2023-06-04T10:21:34;23.20;53.10
56268;DHT22;42175;46.930;9.532;2023-06-04T10:24:01;23.20;53.10
56268;DHT22;42175;46.930;9.532;2023-06-04T10:26:28;23.20;53.90
56268;DHT22;42175;46.930;9.532;2023-06-04T10:28:54;23.30;54.30
56268;DHT22;42175;46.930;9.532;2023-06-04T10:31:22;23.20;54.70
56268;DHT22;42175;46.930;9.532;2023-06-04T10:33:48;23.20;55.30
56268;DHT22;42175;46.930;9.532;2023-06-04T10:36:20;23.30;54.80
56268;DHT22;42175;46.930;9.532;2023-06-04T10:38:49;23.30;53.70
56268;DHT22;42175;46.930;9.532;2023-06-04T10:41:17;23.20;53.40
56268;DHT22;42175;46.930;9.532;2023-06-04T10:43:47;23.20;54.60
56268;DHT22;42175;46.930;9.532;2023-06-04T10:46:16;23.20;55.50
56268;DHT22;42175;46.930;9.532;2023-06-04T10:48:48;23.20;55.20
56268;DHT22;42175;46.930;9.532;2023-06-04T10:51:15;23.20;55.80
56268;DHT22;42175;46.930;9.532;2023-06-04T10:53:41;23.20;56.00
56268;DHT22;42175;46.930;9.532;2023-06-04T10:56:07;23.30;56.00
56268;DHT22;42175;46.930;9.532;2023-06-04T10:58:34;23.20;56.30
56268;DHT22;42175;46.930;9.532;2023-06-04T11:00:59;23.30;56.90
56268;DHT22;42175;46.930;9.532;2023-06-04T11:03:37;23.20;57.50
56268;DHT22;42175;46.930;9.532;2023-06-04T11:06:14;23.20;58.30
56268;DHT22;42175;46.930;9.532;2023-06-04T11:08:41;23.20;58.80
56268;DHT22;42175;46.930;9.532;2023-06-04T11:11:16;23.20;58.00
56268;DHT22;42175;46.930;9.532;2023-06-04T11:13:43;23.20;58.40
56268;DHT22;42175;46.930;9.532;2023-06-04T11:16:19;23.20;58.80
56268;DHT22;42175;46.930;9.532;2023-06-04T11:18:55;23.20;60.00
56268;DHT22;42175;46.930;9.532;2023-06-04T11:21:22;23.10;60.30
56268;DHT22;42175;46.930;9.532;2023-06-04T11:23:47;23.10;60.30
56268;DHT22;42175;46.930;9.532;2023-06-04T11:26:13;23.10;60.80
56268;DHT22;42175;46.930;9.532;2023-06-04T11:28:39;23.10;61.20
56268;DHT22;42175;46.930;9.532;2023-06-04T11:31:08;23.20;60.70
56268;DHT22;42175;46.930;9.532;2023-06-04T11:33:43;23.10;61.10
56268;DHT22;42175;46.930;9.532;2023-06-04T11:36:10;23.20;60.80
56268;DHT22;42175;46.930;9.532;2023-06-04T11:38:35;23.20;61.50
56268;DHT22;42175;46.930;9.532;2023-06-04T11:41:04;23.10;60.60
56268;DHT22;42175;46.930;9.532;2023-06-04T11:43:32;23.20;60.60
56268;DHT22;42175;46.930;9.532;2023-06-04T11:45:58;23.10;60.40
56268;DHT22;42175;46.930;9.532;2023-06-04T11:48:24;23.20;60.60
56268;DHT22;42175;46.930;9.532;2023-06-04T11:50:50;23.20;61.10
56268;DHT22;42175;46.930;9.532;2023-06-04T11:53:16;23.00;61.20
56268;DHT22;42175;46.930;9.532;2023-06-04T11:55:42;23.10;61.10
56268;DHT22;42175;46.930;9.532;2023-06-04T11:58:08;23.10;61.90
56268;DHT22;42175;46.930;9.532;2023-06-04T12:00:33;23.00;62.10
56268;DHT22;42175;46.930;9.532;2023-06-04T12:02:59;23.00;62.30
56268;DHT22;42175;46.930;9.532;2023-06-04T12:05:31;23.00;62.20
56268;DHT22;42175;46.930;9.532;2023-06-04T12:08:10;23.10;62.00
56268;DHT22;42175;46.930;9.532;2023-06-04T12:10:41;23.10;61.50
56268;DHT22;42175;46.930;9.532;2023-06-04T12:13:08;23.10;61.40
56268;DHT22;42175;46.930;9.532;2023-06-04T12:15:35;23.00;62.10
56268;DHT22;42175;46.930;9.532;2023-06-04T12:18:00;23.00;61.90
56268;DHT22;42175;46.930;9.532;2023-06-04T12:20:41;23.00;62.00
56268;DHT22;42175;46.930;9.532;2023-06-04T12:23:19;23.00;61.40
56268;DHT22;42175;46.930;9.532;2023-06-04T12:25:50;23.00;61.70
56268;DHT22;42175;46.930;9.532;2023-06-04T12:28:19;23.00;62.20
56268;DHT22;42175;46.930;9.532;2023-06-04T12:30:45;22.90;62.60
56268;DHT22;42175;46.930;9.532;2023-06-04T12:33:11;22.90;62.80
56268;DHT22;42175;46.930;9.532;2023-06-04T12:35:37;22.90;62.30
56268;DHT22;42175;46.930;9.532;2023-06-04T12:38:04;23.00;63.20
56268;DHT22;42175;46.930;9.532;2023-06-04T12:40:30;23.00;61.10
56268;DHT22;42175;46.930;9.532;2023-06-04T12:42:56;23.00;62.20
56268;DHT22;42175;46.930;9.532;2023-06-04T12:45:22;23.00;60.80
56268;DHT22;42175;46.930;9.532;2023-06-04T12:47:48;22.90;61.50
56268;DHT22;42175;46.930;9.532;2023-06-04T12:50:14;23.00;62.10
56268;DHT22;42175;46.930;9.532;2023-06-04T12:52:39;23.00;62.30
56268;DHT22;42175;46.930;9.532;2023-06-04T12:55:07;23.00;61.80
56268;DHT22;42175;46.930;9.532;2023-06-04T12:57:33;23.00;59.00
56268;DHT22;42175;46.930;9.532;2023-06-04T12:59:58;23.00;57.70
56268;DHT22;42175;46.930;9.532;2023-06-04T13:02:24;22.90;60.10
56268;DHT22;42175;46.930;9.532;2023-06-04T13:04:50;22.80;60.10
56268;DHT22;42175;46.930;9.532;2023-06-04T13:07:20;22.90;61.40
56268;DHT22;42175;46.930;9.532;2023-06-04T13:09:45;22.90;62.30
56268;DHT22;42175;46.930;9.532;2023-06-04T13:12:11;22.90;62.30
56268;DHT22;42175;46.930;9.532;2023-06-04T13:14:37;22.90;63.10
56268;DHT22;42175;46.930;9.532;2023-06-04T13:17:03;22.80;63.40
56268;DHT22;42175;46.930;9.532;2023-06-04T13:19:28;22.90;63.20
56268;DHT22;42175;46.930;9.532;2023-06-04T13:21:54;22.90;63.80
56268;DHT22;42175;46.930;9.532;2023-06-04T13:24:20;22.80;62.90
56268;DHT22;42175;46.930;9.532;2023-06-04T13:26:45;22.80;63.10
56268;DHT22;42175;46.930;9.532;2023-06-04T13:29:11;22.80;63.10
56268;DHT22;42175;46.930;9.532;2023-06-04T13:31:37;22.90;62.60
56268;DHT22;42175;46.930;9.532;2023-06-04T13:34:05;23.00;61.70
56268;DHT22;42175;46.930;9.532;2023-06-04T13:36:30;22.90;61.30
56268;DHT22;42175;46.930;9.532;2023-06-04T13:38:56;22.90;62.30
56268;DHT22;42175;46.930;9.532;2023-06-04T13:41:22;22.80;62.20
56268;DHT22;42175;46.930;9.532;2023-06-04T13:43:48;22.80;62.30
56268;DHT22;42175;46.930;9.532;2023-06-04T13:46:13;22.90;62.50
56268;DHT22;42175;46.930;9.532;2023-06-04T13:48:39;22.80;61.70
56268;DHT22;42175;46.930;9.532;2023-06-04T13:51:05;22.80;61.70
56268;DHT22;42175;46.930;9.532;2023-06-04T13:53:30;22.80;62.40
56268;DHT22;42175;46.930;9.532;2023-06-04T13:55:56;22.80;62.20
56268;DHT22;42175;46.930;9.532;2023-06-04T13:58:24;22.90;61.90
56268;DHT22;42175;46.930;9.532;2023-06-04T14:00:50;22.90;62.00
56268;DHT22;42175;46.930;9.532;2023-06-04T14:03:16;22.90;62.70
56268;DHT22;42175;46.930;9.532;2023-06-04T14:05:41;22.80;63.10
56268;DHT22;42175;46.930;9.532;2023-06-04T14:08:07;22.80;62.80
56268;DHT22;42175;46.930;9.532;2023-06-04T14:10:33;22.90;62.80
56268;DHT22;42175;46.930;9.532;2023-06-04T14:12:58;22.90;62.80
56268;DHT22;42175;46.930;9.532;2023-06-04T14:15:24;22.90;62.60
56268;DHT22;42175;46.930;9.532;2023-06-04T14:17:50;22.90;62.30
56268;DHT22;42175;46.930;9.532;2023-06-04T14:20:15;22.90;62.60
56268;DHT22;42175;46.930;9.532;2023-06-04T14:22:41;22.90;62.40
56268;DHT22;42175;46.930;9.532;2023-06-04T14:25:08;23.00;63.40
56268;DHT22;42175;46.930;9.532;2023-06-04T14:27:35;23.00;62.60
56268;DHT22;42175;46.930;9.532;2023-06-04T14:30:05;23.00;62.10
56268;DHT22;42175;46.930;9.532;2023-06-04T14:32:31;23.00;62.40
56268;DHT22;42175;46.930;9.532;2023-06-04T14:34:59;22.90;62.80
56268;DHT22;42175;46.930;9.532;2023-06-04T14:37:25;22.80;63.10
56268;DHT22;42175;46.930;9.532;2023-06-04T14:39:50;22.80;63.30
56268;DHT22;42175;46.930;9.532;2023-06-04T14:42:16;22.80;62.90
56268;DHT22;42175;46.930;9.532;2023-06-04T14:44:42;22.80;63.60
56268;DHT22;42175;46.930;9.532;2023-06-04T14:47:07;22.80;63.40
56268;DHT22;42175;46.930;9.532;2023-06-04T14:49:33;22.80;63.00
56268;DHT22;42175;46.930;9.532;2023-06-04T14:51:59;22.80;63.30
56268;DHT22;42175;46.930;9.532;2023-06-04T14:54:25;22.80;63.00
56268;DHT22;42175;46.930;9.532;2023-06-04T14:56:51;22.60;62.90
56268;DHT22;42175;46.930;9.532;2023-06-04T14:59:17;22.70;62.60
56268;DHT22;42175;46.930;9.532;2023-06-04T15:01:43;22.70;62.70
56268;DHT22;42175;46.930;9.532;2023-06-04T15:04:09;22.70;61.90
56268;DHT22;42175;46.930;9.532;2023-06-04T15:06:34;22.70;61.60
56268;DHT22;42175;46.930;9.532;2023-06-04T15:09:01;22.70;62.20
56268;DHT22;42175;46.930;9.532;2023-06-04T15:11:26;22.70;62.40
56268;DHT22;42175;46.930;9.532;2023-06-04T15:13:53;22.70;62.30
56268;DHT22;42175;46.930;9.532;2023-06-04T15:16:19;22.70;62.80
56268;DHT22;42175;46.930;9.532;2023-06-04T15:18:45;22.80;61.90
56268;DHT22;42175;46.930;9.532;2023-06-04T15:21:11;22.80;61.40
56268;DHT22;42175;46.930;9.532;2023-06-04T15:23:37;22.80;61.20
56268;DHT22;42175;46.930;9.532;2023-06-04T15:26:02;22.70;61.10
56268;DHT22;42175;46.930;9.532;2023-06-04T15:28:28;22.70;61.50
56268;DHT22;42175;46.930;9.532;2023-06-04T15:30:54;22.60;61.90
56268;DHT22;42175;46.930;9.532;2023-06-04T15:33:19;22.60;62.20
56268;DHT22;42175;46.930;9.532;2023-06-04T15:35:45;22.70;62.20